sensor_id;sensor_type;location;lat;lon;timestamp;P1;durP1;ratioP1;P2;durP2;ratioP2
5137;SDS011;53959;53.626;11.410;2023-05-07T00:01:12;15.00;;;11.43;;
5137;SDS011;53959;53.626;11.410;2023-05-07T00:03:37;18.20;;;11.67;;
5137;SDS011;53959;53.626;11.410;2023-05-07T00:06:03;16.77;;;11.60;;
5137;SDS011;53959;53.626;11.410;2023-05-07T00:08:28;13.53;;;11.20;;
5137;SDS011;53959;53.626;11.410;2023-05-07T00:10:54;15.67;;;10.60;;
5137;SDS011;53959;53.626;11.410;2023-05-07T00:13:19;15.90;;;11.53;;
5137;SDS011;53959;53.626;11.410;2023-05-07T00:15:44;17.40;;;11.77;;
5137;SDS011;53959;53.626;11.410;2023-05-07T00:18:10;16.73;;;12.60;;
5137;SDS011;53959;53.626;11.410;2023-05-07T00:20:35;20.90;;;12.90;;
5137;SDS011;53959;53.626;11.410;2023-05-07T00:23:01;15.23;;;11.60;;
5137;SDS011;53959;53.626;11.410;2023-05-07T00:25:26;17.93;;;12.03;;
5137;SDS011;53959;53.626;11.410;2023-05-07T00:27:51;18.90;;;11.50;;
5137;SDS011;53959;53.626;11.410;2023-05-07T00:30:17;18.70;;;11.53;;
5137;SDS011;53959;53.626;11.410;2023-05-07T00:32:42;20.13;;;12.30;;
5137;SDS011;53959;53.626;11.410;2023-05-07T00:35:10;18.13;;;13.40;;
5137;SDS011;53959;53.626;11.410;2023-05-07T00:37:36;17.10;;;12.63;;
5137;SDS011;53959;53.626;11.410;2023-05-07T00:40:01;18.30;;;12.67;;
5137;SDS011;53959;53.626;11.410;2023-05-07T00:42:29;21.23;;;12.00;;
5137;SDS011;53959;53.626;11.410;2023-05-07T00:44:57;17.20;;;12.20;;
5137;SDS011;53959;53.626;11.410;2023-05-07T00:47:23;15.93;;;11.80;;
5137;SDS011;53959;53.626;11.410;2023-05-07T00:49:50;17.87;;;13.07;;
5137;SDS011;53959;53.626;11.410;2023-05-07T00:52:16;17.97;;;12.27;;
5137;SDS011;53959;53.626;11.410;2023-05-07T00:54:42;17.47;;;11.90;;
5137;SDS011;53959;53.626;11.410;2023-05-07T00:57:08;22.63;;;13.50;;
5137;SDS011;53959;53.626;11.410;2023-05-07T00:59:36;19.67;;;13.03;;
5137;SDS011;53959;53.626;11.410;2023-05-07T01:02:01;24.60;;;13.67;;
5137;SDS011;53959;53.626;11.410;2023-05-07T01:04:27;18.33;;;12.47;;
5137;SDS011;53959;53.626;11.410;2023-05-07T01:06:52;17.03;;;13.00;;
5137;SDS011;53959;53.626;11.410;2023-05-07T01:09:21;17.03;;;11.73;;
5137;SDS011;53959;53.626;11.410;2023-05-07T01:11:48;20.23;;;13.23;;
5137;SDS011;53959;53.626;11.410;2023-05-07T01:14:14;17.73;;;12.30;;
5137;SDS011;53959;53.626;11.410;2023-05-07T01:16:40;17.40;;;11.90;;
5137;SDS011;53959;53.626;11.410;2023-05-07T01:19:08;20.37;;;12.93;;
5137;SDS011;53959;53.626;11.410;2023-05-07T01:21:36;18.03;;;12.30;;
5137;SDS011;53959;53.626;11.410;2023-05-07T01:24:04;17.13;;;11.43;;
5137;SDS011;53959;53.626;11.410;2023-05-07T01:26:31;18.60;;;13.17;;
5137;SDS011;53959;53.626;11.410;2023-05-07T01:28:56;18.50;;;11.60;;
5137;SDS011;53959;53.626;11.410;2023-05-07T01:31:22;16.60;;;12.13;;
5137;SDS011;53959;53.626;11.410;2023-05-07T01:33:49;15.23;;;11.67;;
5137;SDS011;53959;53.626;11.410;2023-05-07T01:36:17;20.73;;;12.13;;
5137;SDS011;53959;53.626;11.410;2023-05-07T01:38:45;15.30;;;12.40;;
5137;SDS011;53959;53.626;11.410;2023-05-07T01:41:11;18.23;;;11.70;;
5137;SDS011;53959;53.626;11.410;2023-05-07T01:43:37;13.43;;;10.90;;
5137;SDS011;53959;53.626;11.410;2023-05-07T01:46:03;14.53;;;11.80;;
5137;SDS011;53959;53.626;11.410;2023-05-07T01:48:28;14.10;;;11.57;;
5137;SDS011;53959;53.626;11.410;2023-05-07T01:50:54;16.50;;;12.43;;
5137;SDS011;53959;53.626;11.410;2023-05-07T01:53:20;16.93;;;12.37;;
5137;SDS011;53959;53.626;11.410;2023-05-07T01:55:45;16.07;;;12.60;;
5137;SDS011;53959;53.626;11.410;2023-05-07T01:58:11;14.63;;;11.87;;
5137;SDS011;53959;53.626;11.410;2023-05-07T02:00:36;16.20;;;11.57;;
5137;SDS011;53959;53.626;11.410;2023-05-07T02:03:02;13.40;;;11.07;;
5137;SDS011;53959;53.626;11.410;2023-05-07T02:05:41;13.53;;;10.90;;
5137;SDS011;53959;53.626;11.410;2023-05-07T02:08:14;16.67;;;11.90;;
5137;SDS011;53959;53.626;11.410;2023-05-07T02:10:40;17.43;;;10.73;;
5137;SDS011;53959;53.626;11.410;2023-05-07T02:13:05;17.23;;;11.80;;
5137;SDS011;53959;53.626;11.410;2023-05-07T02:15:31;15.47;;;11.00;;
5137;SDS011;53959;53.626;11.410;2023-05-07T02:18:03;13.20;;;10.53;;
5137;SDS011;53959;53.626;11.410;2023-05-07T02:20:30;16.03;;;11.00;;
5137;SDS011;53959;53.626;11.410;2023-05-07T02:22:56;19.40;;;10.93;;
5137;SDS011;53959;53.626;11.410;2023-05-07T02:25:21;17.97;;;13.13;;
5137;SDS011;53959;53.626;11.410;2023-05-07T02:27:47;17.13;;;11.70;;
5137;SDS011;53959;53.626;11.410;2023-05-07T02:30:14;14.53;;;11.47;;
5137;SDS011;53959;53.626;11.410;2023-05-07T02:32:40;16.30;;;11.00;;
5137;SDS011;53959;53.626;11.410;2023-05-07T02:35:05;17.23;;;12.30;;
5137;SDS011;53959;53.626;11.410;2023-05-07T02:37:31;15.80;;;11.80;;
5137;SDS011;53959;53.626;11.410;2023-05-07T02:39:56;14.60;;;11.80;;
5137;SDS011;53959;53.626;11.410;2023-05-07T02:42:21;14.13;;;11.00;;
5137;SDS011;53959;53.626;11.410;2023-05-07T02:44:47;16.13;;;11.40;;
5137;SDS011;53959;53.626;11.410;2023-05-07T02:47:13;15.87;;;11.37;;
5137;SDS011;53959;53.626;11.410;2023-05-07T02:49:40;21.03;;;11.20;;
5137;SDS011;53959;53.626;11.410;2023-05-07T02:52:06;19.47;;;11.43;;
5137;SDS011;53959;53.626;11.410;2023-05-07T02:54:32;16.50;;;12.43;;
5137;SDS011;53959;53.626;11.410;2023-05-07T02:56:57;20.03;;;11.00;;
5137;SDS011;53959;53.626;11.410;2023-05-07T02:59:23;21.73;;;12.33;;
5137;SDS011;53959;53.626;11.410;2023-05-07T03:01:49;17.90;;;12.83;;
5137;SDS011;53959;53.626;11.410;2023-05-07T03:04:14;17.20;;;11.90;;
5137;SDS011;53959;53.626;11.410;2023-05-07T03:06:40;14.63;;;11.57;;
5137;SDS011;53959;53.626;11.410;2023-05-07T03:09:06;15.53;;;11.63;;
5137;SDS011;53959;53.626;11.410;2023-05-07T03:11:32;19.43;;;12.80;;
5137;SDS011;53959;53.626;11.410;2023-05-07T03:13:57;16.23;;;10.70;;
5137;SDS011;53959;53.626;11.410;2023-05-07T03:16:23;15.63;;;11.53;;
5137;SDS011;53959;53.626;11.410;2023-05-07T03:18:48;14.43;;;11.17;;
5137;SDS011;53959;53.626;11.410;2023-05-07T03:21:13;14.70;;;11.10;;
5137;SDS011;53959;53.626;11.410;2023-05-07T03:23:39;15.70;;;10.20;;
5137;SDS011;53959;53.626;11.410;2023-05-07T03:26:04;12.27;;;9.87;;
5137;SDS011;53959;53.626;11.410;2023-05-07T03:28:29;12.13;;;8.80;;
5137;SDS011;53959;53.626;11.410;2023-05-07T03:30:59;14.60;;;10.67;;
5137;SDS011;53959;53.626;11.410;2023-05-07T03:33:24;14.27;;;10.30;;
5137;SDS011;53959;53.626;11.410;2023-05-07T03:35:50;13.93;;;9.10;;
5137;SDS011;53959;53.626;11.410;2023-05-07T03:38:19;16.80;;;9.67;;
5137;SDS011;53959;53.626;11.410;2023-05-07T03:40:45;13.00;;;9.80;;
5137;SDS011;53959;53.626;11.410;2023-05-07T03:43:11;15.03;;;8.43;;
5137;SDS011;53959;53.626;11.410;2023-05-07T03:45:39;10.10;;;7.50;;
5137;SDS011;53959;53.626;11.410;2023-05-07T03:48:10;13.53;;;8.70;;
5137;SDS011;53959;53.626;11.410;2023-05-07T03:50:35;10.20;;;8.40;;
5137;SDS011;53959;53.626;11.410;2023-05-07T03:53:01;8.50;;;7.77;;
5137;SDS011;53959;53.626;11.410;2023-05-07T03:55:27;14.37;;;8.73;;
5137;SDS011;53959;53.626;11.410;2023-05-07T03:57:57;11.93;;;9.00;;
5137;SDS011;53959;53.626;11.410;2023-05-07T04:00:25;11.47;;;9.00;;
5137;SDS011;53959;53.626;11.410;2023-05-07T04:02:50;13.47;;;8.77;;
5137;SDS011;53959;53.626;11.410;2023-05-07T04:05:23;14.00;;;8.67;;
5137;SDS011;53959;53.626;11.410;2023-05-07T04:07:51;11.70;;;7.97;;
5137;SDS011;53959;53.626;11.410;2023-05-07T04:10:22;15.10;;;10.70;;
5137;SDS011;53959;53.626;11.410;2023-05-07T04:12:51;11.63;;;9.13;;
5137;SDS011;53959;53.626;11.410;2023-05-07T04:15:20;13.40;;;9.90;;
5137;SDS011;53959;53.626;11.410;2023-05-07T04:17:45;15.87;;;10.40;;
5137;SDS011;53959;53.626;11.410;2023-05-07T04:20:14;14.83;;;10.50;;
5137;SDS011;53959;53.626;11.410;2023-05-07T04:22:42;13.90;;;10.07;;
5137;SDS011;53959;53.626;11.410;2023-05-07T04:25:09;14.10;;;10.20;;
5137;SDS011;53959;53.626;11.410;2023-05-07T04:27:35;21.13;;;11.23;;
5137;SDS011;53959;53.626;11.410;2023-05-07T04:30:02;14.07;;;10.60;;
5137;SDS011;53959;53.626;11.410;2023-05-07T04:32:32;17.10;;;10.47;;
5137;SDS011;53959;53.626;11.410;2023-05-07T04:34:58;15.67;;;9.70;;
5137;SDS011;53959;53.626;11.410;2023-05-07T04:37:24;10.80;;;8.87;;
5137;SDS011;53959;53.626;11.410;2023-05-07T04:39:51;11.80;;;9.10;;
5137;SDS011;53959;53.626;11.410;2023-05-07T04:42:17;12.33;;;8.57;;
5137;SDS011;53959;53.626;11.410;2023-05-07T04:44:43;18.43;;;9.80;;
5137;SDS011;53959;53.626;11.410;2023-05-07T04:47:10;14.53;;;10.53;;
5137;SDS011;53959;53.626;11.410;2023-05-07T04:49:36;13.50;;;9.00;;
5137;SDS011;53959;53.626;11.410;2023-05-07T04:52:02;16.30;;;10.10;;
5137;SDS011;53959;53.626;11.410;2023-05-07T04:54:28;9.47;;;8.40;;
5137;SDS011;53959;53.626;11.410;2023-05-07T04:56:55;13.83;;;8.83;;
5137;SDS011;53959;53.626;11.410;2023-05-07T04:59:20;11.57;;;8.73;;
5137;SDS011;53959;53.626;11.410;2023-05-07T05:01:46;13.40;;;7.67;;
5137;SDS011;53959;53.626;11.410;2023-05-07T05:04:12;10.40;;;8.30;;
5137;SDS011;53959;53.626;11.410;2023-05-07T05:06:39;16.10;;;8.53;;
5137;SDS011;53959;53.626;11.410;2023-05-07T05:09:05;11.10;;;9.17;;
5137;SDS011;53959;53.626;11.410;2023-05-07T05:11:32;10.50;;;7.97;;
5137;SDS011;53959;53.626;11.410;2023-05-07T05:13:59;10.30;;;7.70;;
5137;SDS011;53959;53.626;11.410;2023-05-07T05:16:25;9.73;;;8.17;;
5137;SDS011;53959;53.626;11.410;2023-05-07T05:18:51;14.13;;;7.80;;
5137;SDS011;53959;53.626;11.410;2023-05-07T05:21:18;10.03;;;8.10;;
5137;SDS011;53959;53.626;11.410;2023-05-07T05:23:46;12.40;;;8.43;;
5137;SDS011;53959;53.626;11.410;2023-05-07T05:26:12;18.83;;;10.97;;
5137;SDS011;53959;53.626;11.410;2023-05-07T05:28:38;10.00;;;8.10;;
5137;SDS011;53959;53.626;11.410;2023-05-07T05:31:04;12.93;;;8.90;;
5137;SDS011;53959;53.626;11.410;2023-05-07T05:33:33;9.53;;;7.50;;
5137;SDS011;53959;53.626;11.410;2023-05-07T05:36:02;10.30;;;8.40;;
5137;SDS011;53959;53.626;11.410;2023-05-07T05:38:28;10.50;;;6.97;;
5137;SDS011;53959;53.626;11.410;2023-05-07T05:40:54;10.50;;;8.77;;
5137;SDS011;53959;53.626;11.410;2023-05-07T05:43:19;10.40;;;8.03;;
5137;SDS011;53959;53.626;11.410;2023-05-07T05:45:45;9.07;;;8.17;;
5137;SDS011;53959;53.626;11.410;2023-05-07T05:48:10;8.47;;;7.67;;
5137;SDS011;53959;53.626;11.410;2023-05-07T05:50:36;11.23;;;7.97;;
5137;SDS011;53959;53.626;11.410;2023-05-07T05:53:03;9.60;;;7.77;;
5137;SDS011;53959;53.626;11.410;2023-05-07T05:55:28;13.37;;;9.07;;
5137;SDS011;53959;53.626;11.410;2023-05-07T05:57:57;10.20;;;7.80;;
5137;SDS011;53959;53.626;11.410;2023-05-07T06:00:23;9.60;;;8.47;;
5137;SDS011;53959;53.626;11.410;2023-05-07T06:02:56;11.97;;;8.77;;
5137;SDS011;53959;53.626;11.410;2023-05-07T06:05:23;8.73;;;7.70;;
5137;SDS011;53959;53.626;11.410;2023-05-07T06:07:51;9.00;;;8.00;;
5137;SDS011;53959;53.626;11.410;2023-05-07T06:10:17;8.50;;;7.70;;
5137;SDS011;53959;53.626;11.410;2023-05-07T06:12:43;12.40;;;9.30;;
5137;SDS011;53959;53.626;11.410;2023-05-07T06:15:09;12.93;;;8.10;;
5137;SDS011;53959;53.626;11.410;2023-05-07T06:17:35;12.47;;;8.87;;
5137;SDS011;53959;53.626;11.410;2023-05-07T06:20:00;11.30;;;8.07;;
5137;SDS011;53959;53.626;11.410;2023-05-07T06:22:26;17.03;;;8.63;;
5137;SDS011;53959;53.626;11.410;2023-05-07T06:24:53;14.53;;;8.17;;
5137;SDS011;53959;53.626;11.410;2023-05-07T06:27:19;11.80;;;8.50;;
5137;SDS011;53959;53.626;11.410;2023-05-07T06:29:44;9.83;;;7.30;;
5137;SDS011;53959;53.626;11.410;2023-05-07T06:32:14;13.33;;;7.83;;
5137;SDS011;53959;53.626;11.410;2023-05-07T06:34:41;9.60;;;6.50;;
5137;SDS011;53959;53.626;11.410;2023-05-07T06:37:07;11.07;;;7.47;;
5137;SDS011;53959;53.626;11.410;2023-05-07T06:39:48;10.93;;;6.90;;
5137;SDS011;53959;53.626;11.410;2023-05-07T06:42:15;8.87;;;7.70;;
5137;SDS011;53959;53.626;11.410;2023-05-07T06:44:43;10.23;;;7.23;;
5137;SDS011;53959;53.626;11.410;2023-05-07T06:47:12;8.07;;;7.27;;
5137;SDS011;53959;53.626;11.410;2023-05-07T06:49:38;10.63;;;7.73;;
5137;SDS011;53959;53.626;11.410;2023-05-07T06:52:04;12.87;;;7.60;;
5137;SDS011;53959;53.626;11.410;2023-05-07T06:54:29;9.90;;;7.80;;
5137;SDS011;53959;53.626;11.410;2023-05-07T06:56:55;12.00;;;8.13;;
5137;SDS011;53959;53.626;11.410;2023-05-07T06:59:23;11.47;;;7.80;;
5137;SDS011;53959;53.626;11.410;2023-05-07T07:01:49;8.40;;;7.47;;
5137;SDS011;53959;53.626;11.410;2023-05-07T07:04:14;9.87;;;7.80;;
5137;SDS011;53959;53.626;11.410;2023-05-07T07:06:42;7.93;;;7.13;;
5137;SDS011;53959;53.626;11.410;2023-05-07T07:09:10;9.43;;;8.13;;
5137;SDS011;53959;53.626;11.410;2023-05-07T07:11:35;12.97;;;7.80;;
5137;SDS011;53959;53.626;11.410;2023-05-07T07:14:01;14.40;;;8.20;;
5137;SDS011;53959;53.626;11.410;2023-05-07T07:16:28;8.70;;;7.20;;
5137;SDS011;53959;53.626;11.410;2023-05-07T07:18:54;8.90;;;7.23;;
5137;SDS011;53959;53.626;11.410;2023-05-07T07:21:19;8.70;;;7.80;;
5137;SDS011;53959;53.626;11.410;2023-05-07T07:23:45;31.53;;;17.13;;
5137;SDS011;53959;53.626;11.410;2023-05-07T07:26:11;9.40;;;7.30;;
5137;SDS011;53959;53.626;11.410;2023-05-07T07:28:41;6.97;;;6.03;;
5137;SDS011;53959;53.626;11.410;2023-05-07T07:31:08;6.87;;;6.20;;
5137;SDS011;53959;53.626;11.410;2023-05-07T07:33:33;6.80;;;6.20;;
5137;SDS011;53959;53.626;11.410;2023-05-07T07:35:58;6.67;;;6.07;;
5137;SDS011;53959;53.626;11.410;2023-05-07T07:38:24;6.27;;;5.67;;
5137;SDS011;53959;53.626;11.410;2023-05-07T07:40:49;6.13;;;5.53;;
5137;SDS011;53959;53.626;11.410;2023-05-07T07:43:15;10.50;;;5.70;;
5137;SDS011;53959;53.626;11.410;2023-05-07T07:45:42;5.33;;;4.90;;
5137;SDS011;53959;53.626;11.410;2023-05-07T07:48:07;8.43;;;4.70;;
5137;SDS011;53959;53.626;11.410;2023-05-07T07:50:35;6.00;;;4.57;;
5137;SDS011;53959;53.626;11.410;2023-05-07T07:53:01;6.07;;;4.60;;
5137;SDS011;53959;53.626;11.410;2023-05-07T07:55:27;5.40;;;4.40;;
5137;SDS011;53959;53.626;11.410;2023-05-07T07:57:53;5.27;;;4.77;;
5137;SDS011;53959;53.626;11.410;2023-05-07T08:00:19;5.13;;;4.63;;
5137;SDS011;53959;53.626;11.410;2023-05-07T08:02:50;3.90;;;3.70;;
5137;SDS011;53959;53.626;11.410;2023-05-07T08:05:22;5.57;;;3.67;;
5137;SDS011;53959;53.626;11.410;2023-05-07T08:07:48;4.70;;;4.30;;
5137;SDS011;53959;53.626;11.410;2023-05-07T08:10:18;4.90;;;4.50;;
5137;SDS011;53959;53.626;11.410;2023-05-07T08:12:48;5.13;;;3.97;;
5137;SDS011;53959;53.626;11.410;2023-05-07T08:15:14;4.70;;;3.90;;
5137;SDS011;53959;53.626;11.410;2023-05-07T08:17:40;5.20;;;3.83;;
5137;SDS011;53959;53.626;11.410;2023-05-07T08:20:05;3.50;;;3.20;;
5137;SDS011;53959;53.626;11.410;2023-05-07T08:22:31;3.50;;;3.20;;
5137;SDS011;53959;53.626;11.410;2023-05-07T08:24:57;3.60;;;3.30;;
5137;SDS011;53959;53.626;11.410;2023-05-07T08:27:22;4.40;;;3.73;;
5137;SDS011;53959;53.626;11.410;2023-05-07T08:29:47;5.20;;;3.00;;
5137;SDS011;53959;53.626;11.410;2023-05-07T08:32:15;3.43;;;3.17;;
5137;SDS011;53959;53.626;11.410;2023-05-07T08:34:41;4.00;;;2.47;;
5137;SDS011;53959;53.626;11.410;2023-05-07T08:37:06;7.33;;;2.47;;
5137;SDS011;53959;53.626;11.410;2023-05-07T08:39:32;2.70;;;2.50;;
5137;SDS011;53959;53.626;11.410;2023-05-07T08:42:00;3.13;;;2.87;;
5137;SDS011;53959;53.626;11.410;2023-05-07T08:44:33;4.60;;;2.87;;
5137;SDS011;53959;53.626;11.410;2023-05-07T08:47:03;3.63;;;2.53;;
5137;SDS011;53959;53.626;11.410;2023-05-07T08:49:31;2.17;;;2.07;;
5137;SDS011;53959;53.626;11.410;2023-05-07T08:51:59;6.20;;;2.23;;
5137;SDS011;53959;53.626;11.410;2023-05-07T08:54:25;2.17;;;2.07;;
5137;SDS011;53959;53.626;11.410;2023-05-07T08:56:51;2.73;;;2.47;;
5137;SDS011;53959;53.626;11.410;2023-05-07T08:59:18;2.60;;;2.20;;
5137;SDS011;53959;53.626;11.410;2023-05-07T09:01:44;2.03;;;1.93;;
5137;SDS011;53959;53.626;11.410;2023-05-07T09:04:10;3.43;;;1.83;;
5137;SDS011;53959;53.626;11.410;2023-05-07T09:06:36;1.80;;;1.70;;
5137;SDS011;53959;53.626;11.410;2023-05-07T09:09:03;2.00;;;1.90;;
5137;SDS011;53959;53.626;11.410;2023-05-07T09:11:31;2.93;;;2.00;;
5137;SDS011;53959;53.626;11.410;2023-05-07T09:13:59;6.87;;;2.03;;
5137;SDS011;53959;53.626;11.410;2023-05-07T09:16:28;2.03;;;2.03;;
5137;SDS011;53959;53.626;11.410;2023-05-07T09:18:57;2.63;;;2.07;;
5137;SDS011;53959;53.626;11.410;2023-05-07T09:21:24;2.20;;;2.03;;
5137;SDS011;53959;53.626;11.410;2023-05-07T09:23:52;2.10;;;1.77;;
5137;SDS011;53959;53.626;11.410;2023-05-07T09:26:21;4.70;;;2.20;;
5137;SDS011;53959;53.626;11.410;2023-05-07T09:28:47;1.73;;;1.63;;
5137;SDS011;53959;53.626;11.410;2023-05-07T09:31:14;3.80;;;2.00;;
5137;SDS011;53959;53.626;11.410;2023-05-07T09:33:39;1.67;;;1.60;;
5137;SDS011;53959;53.626;11.410;2023-05-07T09:36:07;2.43;;;2.23;;
5137;SDS011;53959;53.626;11.410;2023-05-07T09:38:36;4.33;;;1.77;;
5137;SDS011;53959;53.626;11.410;2023-05-07T09:41:10;3.90;;;2.00;;
5137;SDS011;53959;53.626;11.410;2023-05-07T09:43:43;2.13;;;1.90;;
5137;SDS011;53959;53.626;11.410;2023-05-07T09:46:12;2.67;;;2.07;;
5137;SDS011;53959;53.626;11.410;2023-05-07T09:48:44;2.53;;;1.83;;
5137;SDS011;53959;53.626;11.410;2023-05-07T09:51:29;2.20;;;1.93;;
5137;SDS011;53959;53.626;11.410;2023-05-07T09:54:17;2.00;;;1.90;;
5137;SDS011;53959;53.626;11.410;2023-05-07T09:56:47;3.07;;;1.73;;
5137;SDS011;53959;53.626;11.410;2023-05-07T09:59:15;5.90;;;1.97;;
5137;SDS011;53959;53.626;11.410;2023-05-07T10:01:43;2.80;;;2.00;;
5137;SDS011;53959;53.626;11.410;2023-05-07T10:04:10;2.27;;;2.17;;
5137;SDS011;53959;53.626;11.410;2023-05-07T10:06:37;2.93;;;2.00;;
5137;SDS011;53959;53.626;11.410;2023-05-07T10:09:04;2.43;;;1.77;;
5137;SDS011;53959;53.626;11.410;2023-05-07T10:11:34;2.27;;;1.97;;
5137;SDS011;53959;53.626;11.410;2023-05-07T10:14:01;2.10;;;2.00;;
5137;SDS011;53959;53.626;11.410;2023-05-07T10:16:29;3.07;;;2.70;;
5137;SDS011;53959;53.626;11.410;2023-05-07T10:18:58;2.30;;;1.77;;
5137;SDS011;53959;53.626;11.410;2023-05-07T10:21:25;2.43;;;2.30;;
5137;SDS011;53959;53.626;11.410;2023-05-07T10:23:58;5.70;;;1.60;;
5137;SDS011;53959;53.626;11.410;2023-05-07T10:26:27;1.80;;;1.70;;
5137;SDS011;53959;53.626;11.410;2023-05-07T10:28:57;1.90;;;1.87;;
5137;SDS011;53959;53.626;11.410;2023-05-07T10:34:38;5.93;;;1.83;;
5137;SDS011;53959;53.626;11.410;2023-05-07T10:37:07;2.13;;;1.87;;
5137;SDS011;53959;53.626;11.410;2023-05-07T10:39:34;3.67;;;2.00;;
5137;SDS011;53959;53.626;11.410;2023-05-07T10:42:08;2.03;;;1.93;;
5137;SDS011;53959;53.626;11.410;2023-05-07T10:44:36;6.70;;;2.60;;
5137;SDS011;53959;53.626;11.410;2023-05-07T10:47:09;1.90;;;1.70;;
5137;SDS011;53959;53.626;11.410;2023-05-07T10:52:17;3.63;;;1.73;;
5137;SDS011;53959;53.626;11.410;2023-05-07T10:57:46;6.77;;;5.30;;
5137;SDS011;53959;53.626;11.410;2023-05-07T11:00:41;3.47;;;3.17;;
5137;SDS011;53959;53.626;11.410;2023-05-07T11:03:11;3.73;;;1.90;;
5137;SDS011;53959;53.626;11.410;2023-05-07T11:05:42;3.57;;;1.50;;
5137;SDS011;53959;53.626;11.410;2023-05-07T11:08:52;1.53;;;1.43;;
5137;SDS011;53959;53.626;11.410;2023-05-07T11:17:14;4.03;;;1.80;;
5137;SDS011;53959;53.626;11.410;2023-05-07T11:19:50;1.40;;;1.40;;
5137;SDS011;53959;53.626;11.410;2023-05-07T11:25:19;3.23;;;1.90;;
5137;SDS011;53959;53.626;11.410;2023-05-07T11:27:49;3.60;;;2.20;;
5137;SDS011;53959;53.626;11.410;2023-05-07T11:30:18;1.77;;;1.53;;
5137;SDS011;53959;53.626;11.410;2023-05-07T11:32:44;3.63;;;1.93;;
5137;SDS011;53959;53.626;11.410;2023-05-07T11:35:12;5.50;;;1.80;;
5137;SDS011;53959;53.626;11.410;2023-05-07T11:37:41;1.53;;;1.43;;
5137;SDS011;53959;53.626;11.410;2023-05-07T11:40:09;1.77;;;1.67;;
5137;SDS011;53959;53.626;11.410;2023-05-07T11:42:36;7.27;;;2.50;;
5137;SDS011;53959;53.626;11.410;2023-05-07T11:45:03;2.83;;;1.60;;
5137;SDS011;53959;53.626;11.410;2023-05-07T11:47:30;4.50;;;1.90;;
5137;SDS011;53959;53.626;11.410;2023-05-07T11:49:56;1.60;;;1.30;;
5137;SDS011;53959;53.626;11.410;2023-05-07T11:52:23;2.67;;;2.47;;
5137;SDS011;53959;53.626;11.410;2023-05-07T11:54:53;3.33;;;1.80;;
5137;SDS011;53959;53.626;11.410;2023-05-07T11:57:20;9.23;;;1.80;;
5137;SDS011;53959;53.626;11.410;2023-05-07T11:59:46;2.33;;;2.07;;
5137;SDS011;53959;53.626;11.410;2023-05-07T12:02:14;2.00;;;1.90;;
5137;SDS011;53959;53.626;11.410;2023-05-07T12:04:40;2.90;;;2.30;;
5137;SDS011;53959;53.626;11.410;2023-05-07T12:07:12;3.00;;;2.00;;
5137;SDS011;53959;53.626;11.410;2023-05-07T12:09:39;8.93;;;2.23;;
5137;SDS011;53959;53.626;11.410;2023-05-07T12:12:05;1.50;;;1.37;;
5137;SDS011;53959;53.626;11.410;2023-05-07T12:14:30;1.73;;;1.43;;
5137;SDS011;53959;53.626;11.410;2023-05-07T12:16:57;2.30;;;1.63;;
5137;SDS011;53959;53.626;11.410;2023-05-07T12:19:27;3.07;;;2.17;;
5137;SDS011;53959;53.626;11.410;2023-05-07T12:21:54;2.93;;;1.63;;
5137;SDS011;53959;53.626;11.410;2023-05-07T12:24:19;8.87;;;2.00;;
5137;SDS011;53959;53.626;11.410;2023-05-07T12:26:45;1.93;;;1.83;;
5137;SDS011;53959;53.626;11.410;2023-05-07T12:29:10;2.27;;;1.70;;
5137;SDS011;53959;53.626;11.410;2023-05-07T12:31:36;3.00;;;2.40;;
5137;SDS011;53959;53.626;11.410;2023-05-07T12:34:02;1.83;;;1.73;;
5137;SDS011;53959;53.626;11.410;2023-05-07T12:36:35;3.10;;;2.23;;
5137;SDS011;53959;53.626;11.410;2023-05-07T12:39:01;2.10;;;1.57;;
5137;SDS011;53959;53.626;11.410;2023-05-07T12:41:29;2.20;;;2.00;;
5137;SDS011;53959;53.626;11.410;2023-05-07T12:43:56;3.63;;;1.97;;
5137;SDS011;53959;53.626;11.410;2023-05-07T12:46:22;1.80;;;1.70;;
5137;SDS011;53959;53.626;11.410;2023-05-07T12:48:48;11.97;;;1.67;;
5137;SDS011;53959;53.626;11.410;2023-05-07T12:51:13;5.13;;;2.30;;
5137;SDS011;53959;53.626;11.410;2023-05-07T12:53:40;2.60;;;2.13;;
5137;SDS011;53959;53.626;11.410;2023-05-07T12:56:07;2.17;;;1.97;;
5137;SDS011;53959;53.626;11.410;2023-05-07T12:58:33;2.47;;;1.70;;
5137;SDS011;53959;53.626;11.410;2023-05-07T13:01:01;2.73;;;1.93;;
5137;SDS011;53959;53.626;11.410;2023-05-07T13:03:33;1.73;;;1.73;;
5137;SDS011;53959;53.626;11.410;2023-05-07T13:06:01;2.30;;;2.07;;
5137;SDS011;53959;53.626;11.410;2023-05-07T13:08:31;2.63;;;2.40;;
5137;SDS011;53959;53.626;11.410;2023-05-07T13:10:59;2.30;;;1.77;;
5137;SDS011;53959;53.626;11.410;2023-05-07T13:13:28;2.10;;;1.90;;
5137;SDS011;53959;53.626;11.410;2023-05-07T13:15:54;3.03;;;2.10;;
5137;SDS011;53959;53.626;11.410;2023-05-07T13:18:19;2.27;;;1.90;;
5137;SDS011;53959;53.626;11.410;2023-05-07T13:20:45;5.50;;;1.87;;
5137;SDS011;53959;53.626;11.410;2023-05-07T13:23:10;2.20;;;2.00;;
5137;SDS011;53959;53.626;11.410;2023-05-07T13:25:36;3.53;;;2.20;;
5137;SDS011;53959;53.626;11.410;2023-05-07T13:28:01;3.10;;;2.00;;
5137;SDS011;53959;53.626;11.410;2023-05-07T13:30:27;8.83;;;1.80;;
5137;SDS011;53959;53.626;11.410;2023-05-07T13:32:54;2.43;;;2.20;;
5137;SDS011;53959;53.626;11.410;2023-05-07T13:35:20;2.67;;;1.97;;
5137;SDS011;53959;53.626;11.410;2023-05-07T13:37:47;2.40;;;1.70;;
5137;SDS011;53959;53.626;11.410;2023-05-07T13:40:14;5.53;;;2.47;;
5137;SDS011;53959;53.626;11.410;2023-05-07T13:42:39;4.27;;;1.93;;
5137;SDS011;53959;53.626;11.410;2023-05-07T13:45:05;1.97;;;1.87;;
5137;SDS011;53959;53.626;11.410;2023-05-07T13:47:31;5.70;;;2.33;;
5137;SDS011;53959;53.626;11.410;2023-05-07T13:49:56;2.03;;;1.93;;
5137;SDS011;53959;53.626;11.410;2023-05-07T13:52:21;3.30;;;2.17;;
5137;SDS011;53959;53.626;11.410;2023-05-07T13:54:47;2.23;;;2.00;;
5137;SDS011;53959;53.626;11.410;2023-05-07T13:57:12;4.50;;;2.63;;
5137;SDS011;53959;53.626;11.410;2023-05-07T13:59:37;1.73;;;1.63;;
5137;SDS011;53959;53.626;11.410;2023-05-07T14:02:03;2.00;;;1.80;;
5137;SDS011;53959;53.626;11.410;2023-05-07T14:04:31;3.17;;;2.23;;
5137;SDS011;53959;53.626;11.410;2023-05-07T14:06:56;2.13;;;2.03;;
5137;SDS011;53959;53.626;11.410;2023-05-07T14:09:21;3.83;;;2.10;;
5137;SDS011;53959;53.626;11.410;2023-05-07T14:11:47;3.07;;;2.13;;
5137;SDS011;53959;53.626;11.410;2023-05-07T14:14:16;5.50;;;2.30;;
5137;SDS011;53959;53.626;11.410;2023-05-07T14:16:42;2.83;;;1.97;;
5137;SDS011;53959;53.626;11.410;2023-05-07T14:19:07;2.50;;;2.03;;
5137;SDS011;53959;53.626;11.410;2023-05-07T14:21:32;2.27;;;2.07;;
5137;SDS011;53959;53.626;11.410;2023-05-07T14:23:58;2.00;;;1.90;;
5137;SDS011;53959;53.626;11.410;2023-05-07T14:26:24;7.30;;;2.40;;
5137;SDS011;53959;53.626;11.410;2023-05-07T14:28:52;2.97;;;2.23;;
5137;SDS011;53959;53.626;11.410;2023-05-07T14:31:19;2.20;;;1.90;;
5137;SDS011;53959;53.626;11.410;2023-05-07T14:33:45;4.90;;;2.50;;
5137;SDS011;53959;53.626;11.410;2023-05-07T14:36:11;8.80;;;2.63;;
5137;SDS011;53959;53.626;11.410;2023-05-07T14:38:36;9.50;;;2.60;;
5137;SDS011;53959;53.626;11.410;2023-05-07T14:41:02;2.23;;;2.13;;
5137;SDS011;53959;53.626;11.410;2023-05-07T14:43:27;4.13;;;2.20;;
5137;SDS011;53959;53.626;11.410;2023-05-07T14:45:52;3.60;;;2.20;;
5137;SDS011;53959;53.626;11.410;2023-05-07T14:48:18;3.90;;;2.20;;
5137;SDS011;53959;53.626;11.410;2023-05-07T14:50:43;5.00;;;2.30;;
5137;SDS011;53959;53.626;11.410;2023-05-07T14:53:11;3.33;;;1.67;;
5137;SDS011;53959;53.626;11.410;2023-05-07T14:55:36;2.37;;;2.17;;